sensor_id;sensor_type;location;lat;lon;timestamp;pressure;altitude;pressure_sealevel;temperature;humidity
47166;BME280;32930;51.112;13.762;2023-03-18T00:44:46;98956.56;;;9.41;39.31
47166;BME280;32930;51.112;13.762;2023-03-18T00:47:12;98973.59;;;9.16;39.26
47166;BME280;32930;51.112;13.762;2023-03-18T00:49:37;98966.78;;;9.38;39.27
47166;BME280;32930;51.112;13.762;2023-03-18T00:52:03;98967.66;;;9.56;39.05
47166;BME280;32930;51.112;13.762;2023-03-18T00:54:28;98959.97;;;9.42;39.33
47166;BME280;32930;51.112;13.762;2023-03-18T00:56:54;98957.41;;;9.54;39.12
47166;BME280;32930;51.112;13.762;2023-03-18T00:59:21;98959.97;;;9.43;39.07
47166;BME280;32930;51.112;13.762;2023-03-18T01:01:46;98947.19;;;9.56;38.78
47166;BME280;32930;51.112;13.762;2023-03-18T01:04:12;98954.00;;;9.57;38.99
47166;BME280;32930;51.112;13.762;2023-03-18T01:06:38;98956.56;;;9.52;38.86
47166;BME280;32930;51.112;13.762;2023-03-18T01:09:05;98933.50;;;9.58;39.55
47166;BME280;32930;51.112;13.762;2023-03-18T01:11:33;98941.19;;;9.24;39.59
47166;BME280;32930;51.112;13.762;2023-03-18T01:16:29;98933.50;;;9.23;39.80
47166;BME280;32930;51.112;13.762;2023-03-18T01:18:54;98948.88;;;9.41;39.01
47166;BME280;32930;51.112;13.762;2023-03-18T01:21:20;98942.91;;;9.24;39.60
47166;BME280;32930;51.112;13.762;2023-03-18T01:23:47;98940.34;;;9.28;39.65
47166;BME280;32930;51.112;13.762;2023-03-18T01:26:13;98930.94;;;9.23;39.49
47166;BME280;32930;51.112;13.762;2023-03-18T01:28:39;98927.53;;;9.25;39.47
47166;BME280;32930;51.112;13.762;2023-03-18T01:31:05;98924.97;;;9.36;39.87
47166;BME280;32930;51.112;13.762;2023-03-18T01:33:32;98928.41;;;9.35;39.41
47166;BME280;32930;51.112;13.762;2023-03-18T01:36:00;98933.53;;;9.43;39.46
47166;BME280;32930;51.112;13.762;2023-03-18T01:38:28;98933.50;;;9.26;39.32
47166;BME280;32930;51.112;13.762;2023-03-18T01:40:55;98934.38;;;9.33;39.50
47166;BME280;32930;51.112;13.762;2023-03-18T01:43:29;98929.25;;;9.39;39.51
47166;BME280;32930;51.112;13.762;2023-03-18T01:55:51;98925.00;;;9.30;39.96
47166;BME280;32930;51.112;13.762;2023-03-18T01:58:23;98926.69;;;9.20;39.74
47166;BME280;32930;51.112;13.762;2023-03-18T02:10:56;98934.34;;;9.10;40.16
47166;BME280;32930;51.112;13.762;2023-03-18T02:13:24;98935.22;;;9.18;40.13
47166;BME280;32930;51.112;13.762;2023-03-18T02:16:03;98933.50;;;9.14;40.36
47166;BME280;32930;51.112;13.762;2023-03-18T02:18:42;98934.38;;;9.14;40.15
47166;BME280;32930;51.112;13.762;2023-03-18T02:24:19;98938.66;;;9.27;39.87
47166;BME280;32930;51.112;13.762;2023-03-18T02:27:20;98933.53;;;9.27;39.87
47166;BME280;32930;51.112;13.762;2023-03-18T02:29:48;98946.31;;;9.09;40.37
47166;BME280;32930;51.112;13.762;2023-03-18T02:32:19;98947.13;;;9.03;40.66
47166;BME280;32930;51.112;13.762;2023-03-18T02:34:46;98950.56;;;9.10;40.36
47166;BME280;32930;51.112;13.762;2023-03-18T02:37:13;98959.94;;;9.13;40.13
47166;BME280;32930;51.112;13.762;2023-03-18T02:39:38;98969.31;;;8.92;40.70
47166;BME280;32930;51.112;13.762;2023-03-18T02:42:04;98951.41;;;9.11;40.54
47166;BME280;32930;51.112;13.762;2023-03-18T02:44:30;98959.06;;;8.86;40.66
47166;BME280;32930;51.112;13.762;2023-03-18T02:47:00;98953.94;;;9.01;40.56
47166;BME280;32930;51.112;13.762;2023-03-18T02:49:31;98968.47;;;9.05;41.11
47166;BME280;32930;51.112;13.762;2023-03-18T02:51:57;98972.75;;;9.16;40.39
47166;BME280;32930;51.112;13.762;2023-03-18T02:54:26;98962.53;;;9.19;40.30
47166;BME280;32930;51.112;13.762;2023-03-18T02:56:53;98971.00;;;9.01;40.49
47166;BME280;32930;51.112;13.762;2023-03-18T02:59:20;98968.47;;;9.07;40.60
47166;BME280;32930;51.112;13.762;2023-03-18T03:01:48;98970.19;;;9.02;40.95
47166;BME280;32930;51.112;13.762;2023-03-18T03:04:16;98969.25;;;8.78;40.92
47166;BME280;32930;51.112;13.762;2023-03-18T03:06:42;98975.28;;;9.07;40.53
47166;BME280;32930;51.112;13.762;2023-03-18T03:09:12;98974.41;;;8.98;40.93
47166;BME280;32930;51.112;13.762;2023-03-18T03:11:39;98982.13;;;9.14;40.54
47166;BME280;32930;51.112;13.762;2023-03-18T03:19:09;98983.81;;;9.05;40.69
47166;BME280;32930;51.112;13.762;2023-03-18T03:21:34;98984.63;;;8.86;40.77
47166;BME280;32930;51.112;13.762;2023-03-18T03:24:04;98982.94;;;8.97;40.96
47166;BME280;32930;51.112;13.762;2023-03-18T03:26:30;98987.19;;;8.94;40.77
47166;BME280;32930;51.112;13.762;2023-03-18T03:28:56;98987.19;;;8.88;40.74
47166;BME280;32930;51.112;13.762;2023-03-18T03:31:23;98988.84;;;8.75;41.27
47166;BME280;32930;51.112;13.762;2023-03-18T03:33:49;98990.63;;;8.97;41.20
47166;BME280;32930;51.112;13.762;2023-03-18T03:36:16;98990.63;;;9.00;41.17
47166;BME280;32930;51.112;13.762;2023-03-18T04:28:18;99038.22;;;8.62;41.91
47166;BME280;32930;51.112;13.762;2023-03-18T04:30:44;99032.34;;;8.82;41.56
47166;BME280;32930;51.112;13.762;2023-03-18T04:33:09;99032.38;;;8.93;41.51
47166;BME280;32930;51.112;13.762;2023-03-18T04:35:36;99034.91;;;8.86;42.04
47166;BME280;32930;51.112;13.762;2023-03-18T04:38:02;99028.97;;;8.93;41.53
47166;BME280;32930;51.112;13.762;2023-03-18T04:40:28;99039.19;;;8.91;41.16
47166;BME280;32930;51.112;13.762;2023-03-18T04:42:54;99040.00;;;8.78;41.32
47166;BME280;32930;51.112;13.762;2023-03-18T04:45:19;99046.84;;;8.82;41.67
47166;BME280;32930;51.112;13.762;2023-03-18T04:47:45;99050.13;;;8.56;41.95
47166;BME280;32930;51.112;13.762;2023-03-18T04:50:12;99053.63;;;8.74;41.86
47166;BME280;32930;51.112;13.762;2023-03-18T04:52:39;99044.28;;;8.84;42.12
47166;BME280;32930;51.112;13.762;2023-03-18T04:55:06;99043.41;;;8.74;42.05
47166;BME280;32930;51.112;13.762;2023-03-18T04:57:32;99045.13;;;8.76;41.75
47166;BME280;32930;51.112;13.762;2023-03-18T05:00:00;99053.63;;;8.75;41.59
47166;BME280;32930;51.112;13.762;2023-03-18T05:02:26;99053.72;;;8.92;41.87
47166;BME280;32930;51.112;13.762;2023-03-18T05:04:52;99060.41;;;8.61;41.84
47166;BME280;32930;51.112;13.762;2023-03-18T05:07:17;99060.31;;;8.50;42.05
47166;BME280;32930;51.112;13.762;2023-03-18T05:09:43;99062.94;;;8.58;41.95
47166;BME280;32930;51.112;13.762;2023-03-18T05:12:11;99053.50;;;8.46;42.43
47166;BME280;32930;51.112;13.762;2023-03-18T05:14:37;99055.25;;;8.58;42.42
47166;BME280;32930;51.112;13.762;2023-03-18T05:17:03;99057.59;;;8.24;42.62
47166;BME280;32930;51.112;13.762;2023-03-18T05:19:28;99047.53;;;8.49;42.47
47166;BME280;32930;51.112;13.762;2023-03-18T05:21:54;99058.50;;;8.37;42.48
47166;BME280;32930;51.112;13.762;2023-03-18T05:24:20;99067.97;;;8.46;42.21
47166;BME280;32930;51.112;13.762;2023-03-18T05:26:46;99071.34;;;8.42;42.40
47166;BME280;32930;51.112;13.762;2023-03-18T05:29:12;99066.13;;;8.31;42.66
47166;BME280;32930;51.112;13.762;2023-03-18T05:34:07;99067.16;;;8.51;42.62
47166;BME280;32930;51.112;13.762;2023-03-18T05:36:33;99070.41;;;8.30;42.70
47166;BME280;32930;51.112;13.762;2023-03-18T05:38:59;99068.75;;;8.35;42.50
47166;BME280;32930;51.112;13.762;2023-03-18T05:41:24;99070.47;;;8.38;42.63
47166;BME280;32930;51.112;13.762;2023-03-18T05:49:40;99074.56;;;8.18;42.88
47166;BME280;32930;51.112;13.762;2023-03-18T05:52:06;99073.13;;;8.52;42.89
47166;BME280;32930;51.112;13.762;2023-03-18T05:54:31;99080.75;;;8.50;43.06
47166;BME280;32930;51.112;13.762;2023-03-18T05:56:57;99079.84;;;8.41;42.83
47166;BME280;32930;51.112;13.762;2023-03-18T05:59:23;99079.03;;;8.43;42.96
47166;BME280;32930;51.112;13.762;2023-03-18T06:01:50;99072.78;;;8.09;43.36
47166;BME280;32930;51.112;13.762;2023-03-18T06:04:16;99081.50;;;8.34;43.38
47166;BME280;32930;51.112;13.762;2023-03-18T06:06:46;99085.06;;;8.56;42.73
47166;BME280;32930;51.112;13.762;2023-03-18T06:09:12;99081.66;;;8.55;43.11
47166;BME280;32930;51.112;13.762;2023-03-18T06:11:38;99103.72;;;8.44;42.89
47166;BME280;32930;51.112;13.762;2023-03-18T06:14:08;99081.59;;;8.46;43.01
47166;BME280;32930;51.112;13.762;2023-03-18T06:16:34;99085.84;;;8.44;43.11
47166;BME280;32930;51.112;13.762;2023-03-18T06:19:00;99084.22;;;8.58;43.17
47166;BME280;32930;51.112;13.762;2023-03-18T06:21:26;99085.13;;;8.68;43.11
47166;BME280;32930;51.112;13.762;2023-03-18T06:23:53;99085.94;;;8.58;43.29
47166;BME280;32930;51.112;13.762;2023-03-18T06:26:19;99085.06;;;8.54;43.23
47166;BME280;32930;51.112;13.762;2023-03-18T06:28:45;99097.13;;;8.80;50.60
47166;BME280;32930;51.112;13.762;2023-03-18T06:31:11;99086.84;;;8.68;43.10
47166;BME280;32930;51.112;13.762;2023-03-18T06:33:44;99085.09;;;8.62;42.92
47166;BME280;32930;51.112;13.762;2023-03-18T06:36:10;99086.91;;;8.81;42.70
47166;BME280;32930;51.112;13.762;2023-03-18T06:38:37;99084.53;;;9.24;42.08
47166;BME280;32930;51.112;13.762;2023-03-18T06:41:03;99092.09;;;9.01;42.26
47166;BME280;32930;51.112;13.762;2023-03-18T06:43:28;99098.09;;;9.10;42.16
47166;BME280;32930;51.112;13.762;2023-03-18T06:45:55;99088.81;;;9.45;42.31
47166;BME280;32930;51.112;13.762;2023-03-18T06:48:21;99093.00;;;9.17;42.67
47166;BME280;32930;51.112;13.762;2023-03-18T06:58:25;99094.84;;;9.60;42.21
47166;BME280;32930;51.112;13.762;2023-03-18T07:00:51;99097.38;;;9.50;42.08
47166;BME280;32930;51.112;13.762;2023-03-18T07:03:17;99099.94;;;9.46;42.12
47166;BME280;32930;51.112;13.762;2023-03-18T07:05:42;99111.84;;;9.32;42.25
47166;BME280;32930;51.112;13.762;2023-03-18T07:08:09;99099.94;;;9.47;41.86
47166;BME280;32930;51.112;13.762;2023-03-18T07:10:34;99105.94;;;9.77;42.00
47166;BME280;32930;51.112;13.762;2023-03-18T07:13:00;99104.25;;;9.93;42.01
47166;BME280;32930;51.112;13.762;2023-03-18T07:15:26;99104.25;;;9.88;41.90
47166;BME280;32930;51.112;13.762;2023-03-18T07:17:52;99106.78;;;9.61;41.97
47166;BME280;32930;51.112;13.762;2023-03-18T07:20:18;99102.53;;;9.63;42.11
47166;BME280;32930;51.112;13.762;2023-03-18T07:22:45;99101.69;;;9.78;42.02
47166;BME280;32930;51.112;13.762;2023-03-18T07:25:11;99112.81;;;10.00;41.85
47166;BME280;32930;51.112;13.762;2023-03-18T07:27:38;99107.69;;;9.81;41.85
47166;BME280;32930;51.112;13.762;2023-03-18T07:30:05;99108.56;;;10.32;41.65
47166;BME280;32930;51.112;13.762;2023-03-18T07:32:31;99102.56;;;10.27;41.26
47166;BME280;32930;51.112;13.762;2023-03-18T07:34:56;99103.41;;;10.52;41.93
47166;BME280;32930;51.112;13.762;2023-03-18T07:37:24;99111.97;;;10.27;41.16
47166;BME280;32930;51.112;13.762;2023-03-18T07:39:49;99105.00;;;10.98;40.79
47166;BME280;32930;51.112;13.762;2023-03-18T07:42:17;99105.00;;;10.90;40.74
47166;BME280;32930;51.112;13.762;2023-03-18T07:44:42;99093.03;;;10.90;40.36
47166;BME280;32930;51.112;13.762;2023-03-18T07:47:08;99095.59;;;10.89;40.89
47166;BME280;32930;51.112;13.762;2023-03-18T07:49:34;99100.50;;;11.46;48.13
47166;BME280;32930;51.112;13.762;2023-03-18T07:51:59;99095.97;;;11.78;44.34
47166;BME280;32930;51.112;13.762;2023-03-18T07:54:26;99098.47;;;11.94;48.19
47166;BME280;32930;51.112;13.762;2023-03-18T07:56:52;99095.50;;;11.15;40.61
47166;BME280;32930;51.112;13.762;2023-03-18T07:59:18;99102.41;;;11.04;40.94
47166;BME280;32930;51.112;13.762;2023-03-18T08:01:45;99102.31;;;11.24;40.93
47166;BME280;32930;51.112;13.762;2023-03-18T08:04:10;99104.84;;;11.33;40.94
47166;BME280;32930;51.112;13.762;2023-03-18T08:06:37;99109.13;;;11.29;41.22
47166;BME280;32930;51.112;13.762;2023-03-18T08:12:25;99114.28;;;11.25;40.81
47166;BME280;32930;51.112;13.762;2023-03-18T08:14:51;99110.84;;;11.30;41.09
47166;BME280;32930;51.112;13.762;2023-03-18T08:17:19;99102.28;;;11.25;40.92
47166;BME280;32930;51.112;13.762;2023-03-18T08:19:45;99107.47;;;11.19;41.17
47166;BME280;32930;51.112;13.762;2023-03-18T08:22:13;99105.00;;;10.93;41.54
47166;BME280;32930;51.112;13.762;2023-03-18T08:24:39;99099.75;;;11.24;41.57
47166;BME280;32930;51.112;13.762;2023-03-18T08:27:05;99110.00;;;11.22;41.26
47166;BME280;32930;51.112;13.762;2023-03-18T08:29:31;99121.22;;;11.00;41.53
47166;BME280;32930;51.112;13.762;2023-03-18T08:31:59;99127.97;;;11.30;41.41
47166;BME280;32930;51.112;13.762;2023-03-18T08:34:25;99108.09;;;11.59;41.13
47166;BME280;32930;51.112;13.762;2023-03-18T08:36:51;99108.06;;;11.70;41.02
47166;BME280;32930;51.112;13.762;2023-03-18T08:39:16;99103.97;;;11.39;41.50
47166;BME280;32930;51.112;13.762;2023-03-18T08:41:42;99108.88;;;11.77;41.20
47166;BME280;32930;51.112;13.762;2023-03-18T08:44:08;99115.63;;;11.93;40.92
47166;BME280;32930;51.112;13.762;2023-03-18T08:46:38;99117.88;;;12.32;40.62
47166;BME280;32930;51.112;13.762;2023-03-18T08:49:05;99113.00;;;12.02;41.19
47166;BME280;32930;51.112;13.762;2023-03-18T08:51:32;99112.00;;;12.20;41.21
47166;BME280;32930;51.112;13.762;2023-03-18T08:53:58;99109.28;;;12.34;41.26
47166;BME280;32930;51.112;13.762;2023-03-18T08:56:23;99114.28;;;12.49;40.39
47166;BME280;32930;51.112;13.762;2023-03-18T08:58:49;99109.69;;;12.81;40.45
47166;BME280;32930;51.112;13.762;2023-03-18T09:01:16;99117.25;;;12.94;39.80
47166;BME280;32930;51.112;13.762;2023-03-18T09:03:43;99119.19;;;12.74;40.11
47166;BME280;32930;51.112;13.762;2023-03-18T09:06:10;99113.13;;;12.81;40.05
47166;BME280;32930;51.112;13.762;2023-03-18T09:08:35;99125.03;;;12.88;40.10
47166;BME280;32930;51.112;13.762;2023-03-18T09:11:02;99112.38;;;13.44;39.66
47166;BME280;32930;51.112;13.762;2023-03-18T09:13:28;99115.47;;;12.98;39.26
47166;BME280;32930;51.112;13.762;2023-03-18T09:15:54;99113.91;;;12.89;39.23
47166;BME280;32930;51.112;13.762;2023-03-18T09:18:19;99117.34;;;13.58;38.68
47166;BME280;32930;51.112;13.762;2023-03-18T09:20:47;99113.28;;;13.41;39.55
47166;BME280;32930;51.112;13.762;2023-03-18T09:23:14;99120.38;;;13.19;39.48
47166;BME280;32930;51.112;13.762;2023-03-18T09:25:40;99121.41;;;13.06;39.35
47166;BME280;32930;51.112;13.762;2023-03-18T09:28:09;99108.50;;;13.74;38.89
47166;BME280;32930;51.112;13.762;2023-03-18T09:30:35;99112.06;;;13.67;38.98
47166;BME280;32930;51.112;13.762;2023-03-18T09:33:02;99115.34;;;13.77;38.90
47166;BME280;32930;51.112;13.762;2023-03-18T09:35:30;99107.69;;;14.25;39.05
47166;BME280;32930;51.112;13.762;2023-03-18T09:37:56;99118.16;;;14.17;38.79
47166;BME280;32930;51.112;13.762;2023-03-18T09:40:28;99116.13;;;14.36;38.13
47166;BME280;32930;51.112;13.762;2023-03-18T09:48:59;99119.25;;;14.56;37.93
47166;BME280;32930;51.112;13.762;2023-03-18T09:54:18;99117.56;;;14.54;38.01
47166;BME280;32930;51.112;13.762;2023-03-18T09:56:50;99115.28;;;14.34;38.36
47166;BME280;32930;51.112;13.762;2023-03-18T10:00:18;99118.69;;;14.37;38.42
47166;BME280;32930;51.112;13.762;2023-03-18T10:04:54;99117.19;;;14.74;38.10
47166;BME280;32930;51.112;13.762;2023-03-18T10:07:24;99112.72;;;14.83;38.34
47166;BME280;32930;51.112;13.762;2023-03-18T10:09:59;99109.16;;;14.89;37.70
47166;BME280;32930;51.112;13.762;2023-03-18T10:12:30;99111.28;;;14.18;38.30
47166;BME280;32930;51.112;13.762;2023-03-18T10:17:41;99106.59;;;14.89;38.17
47166;BME280;32930;51.112;13.762;2023-03-18T10:25:37;99123.75;;;14.42;38.74
47166;BME280;32930;51.112;13.762;2023-03-18T10:36:19;99117.41;;;15.08;39.25
47166;BME280;32930;51.112;13.762;2023-03-18T10:38:49;99132.56;;;14.80;39.41
47166;BME280;32930;51.112;13.762;2023-03-18T10:41:31;99122.34;;;14.75;38.83
47166;BME280;32930;51.112;13.762;2023-03-18T10:44:04;99114.22;;;14.95;39.23
47166;BME280;32930;51.112;13.762;2023-03-18T10:46:32;99125.50;;;14.91;39.17
47166;BME280;32930;51.112;13.762;2023-03-18T10:49:15;99123.59;;;14.54;39.16
47166;BME280;32930;51.112;13.762;2023-03-18T10:51:53;99125.34;;;14.97;40.29
47166;BME280;32930;51.112;13.762;2023-03-18T10:54:35;99129.53;;;15.04;39.48
47166;BME280;32930;51.112;13.762;2023-03-18T10:57:03;99127.47;;;14.77;39.52
47166;BME280;32930;51.112;13.762;2023-03-18T10:59:29;99123.28;;;15.15;39.16
47166;BME280;32930;51.112;13.762;2023-03-18T11:02:02;99129.50;;;15.06;39.11
47166;BME280;32930;51.112;13.762;2023-03-18T11:04:35;99122.13;;;14.86;39.25
47166;BME280;32930;51.112;13.762;2023-03-18T11:07:06;99127.09;;;14.97;39.92
47166;BME280;32930;51.112;13.762;2023-03-18T11:09:37;99125.13;;;14.65;39.71
47166;BME280;32930;51.112;13.762;2023-03-18T11:12:15;99133.38;;;14.83;39.75
47166;BME280;32930;51.112;13.762;2023-03-18T11:14:46;99132.34;;;14.92;40.47
47166;BME280;32930;51.112;13.762;2023-03-18T11:17:26;99137.63;;;14.86;40.08
47166;BME280;32930;51.112;13.762;2023-03-18T11:20:12;99141.94;;;14.86;40.46
47166;BME280;32930;51.112;13.762;2023-03-18T11:22:48;99139.50;;;14.78;40.04
47166;BME280;32930;51.112;13.762;2023-03-18T11:25:21;99129.53;;;14.58;40.35
47166;BME280;32930;51.112;13.762;2023-03-18T11:27:56;99129.28;;;14.72;40.03
47166;BME280;32930;51.112;13.762;2023-03-18T11:30:23;99126.25;;;14.48;40.31
47166;BME280;32930;51.112;13.762;2023-03-18T11:38:13;99135.38;;;14.68;40.05
47166;BME280;32930;51.112;13.762;2023-03-18T11:40:39;99125.84;;;14.73;40.41
47166;BME280;32930;51.112;13.762;2023-03-18T11:43:16;99136.53;;;14.51;40.20
47166;BME280;32930;51.112;13.762;2023-03-18T11:48:27;99128.53;;;14.65;40.32
47166;BME280;32930;51.112;13.762;2023-03-18T11:56:25;99131.63;;;14.86;40.79
47166;BME280;32930;51.112;13.762;2023-03-18T12:04:12;99123.47;;;15.07;40.48
47166;BME280;32930;51.112;13.762;2023-03-18T12:18:55;99124.22;;;14.66;40.47
47166;BME280;32930;51.112;13.762;2023-03-18T12:21:39;99120.28;;;14.94;40.17
47166;BME280;32930;51.112;13.762;2023-03-18T12:45:01;99115.44;;;14.76;40.42
47166;BME280;32930;51.112;13.762;2023-03-18T12:50:31;99115.34;;;14.82;40.61
47166;BME280;32930;51.112;13.762;2023-03-18T12:55:35;99111.81;;;14.86;40.78
47166;BME280;32930;51.112;13.762;2023-03-18T12:58:12;99116.25;;;14.79;41.10
47166;BME280;32930;51.112;13.762;2023-03-18T13:03:31;99107.91;;;15.10;41.04
47166;BME280;32930;51.112;13.762;2023-03-18T13:49:01;99083.53;;;14.78;41.62
47166;BME280;32930;51.112;13.762;2023-03-18T13:53:57;99083.22;;;14.94;41.77
47166;BME280;32930;51.112;13.762;2023-03-18T13:56:45;99087.06;;;15.16;42.02
47166;BME280;32930;51.112;13.762;2023-03-18T14:05:02;99083.91;;;15.03;41.62
47166;BME280;32930;51.112;13.762;2023-03-18T14:12:40;99063.09;;;15.10;42.53
